Time;durP1;ratioP1;P1;durP2;ratioP2;P2;SDS_P1;SDS_P2;PMS_P1;PMS_P2;Temp;Humidity;BMP_temperature;BMP_pressure;BME280_temperature;BME280_humidity;BME280_pressure;Samples;Min_cycle;Max_cycle;Signal;HPM_P1;HPM_P2
2023/05/26 00:01:03;;;;;;;31.35;6.95;;;7.90;99.90;;;;;;5052943;28;20106;-69
2023/05/26 00:03:29;;;;;;;23.58;7.13;;;8.10;99.90;;;;;;5053979;28;20056;-69
2023/05/26 00:05:56;;;;;;;33.53;6.50;;;7.90;99.90;;;;;;5051922;28;20068;-68
2023/05/26 00:08:24;;;;;;;17.95;5.95;;;7.90;99.90;;;;;;5061124;28;20048;-69
2023/05/26 00:10:51;;;;;;;22.38;6.10;;;7.90;99.90;;;;;;5055566;28;20056;-68
2023/05/26 00:13:19;;;;;;;20.83;5.80;;;7.90;99.90;;;;;;5055355;28;20515;-68
2023/05/26 00:15:46;;;;;;;27.92;6.18;;;7.90;99.90;;;;;;5073808;28;20044;-69
2023/05/26 00:18:13;;;;;;;21.83;5.45;;;8.00;99.90;;;;;;5055955;28;20121;-69
2023/05/26 00:20:40;;;;;;;18.73;6.15;;;7.90;99.90;;;;;;5072186;28;20106;-68
2023/05/26 00:23:07;;;;;;;22.20;5.07;;;7.80;99.90;;;;;;5055400;28;20443;-68
2023/05/26 00:25:34;;;;;;;25.98;5.45;;;7.80;99.90;;;;;;5070759;28;20048;-68
2023/05/26 00:28:01;;;;;;;30.25;5.70;;;7.80;99.90;;;;;;5073555;28;20051;-68
2023/05/26 00:30:30;;;;;;;17.75;4.85;;;7.90;99.90;;;;;;5055504;28;20132;-69
2023/05/26 00:32:57;;;;;;;21.10;5.15;;;8.50;99.90;;;;;;5055045;28;20071;-69
2023/05/26 00:35:24;;;;;;;21.27;5.35;;;8.40;99.90;;;;;;5055382;28;20564;-69
2023/05/26 00:37:51;;;;;;;25.27;5.82;;;7.80;99.90;;;;;;5055191;28;20060;-69
2023/05/26 00:40:18;;;;;;;20.85;5.68;;;7.80;99.90;;;;;;5054860;28;20059;-69
2023/05/26 00:42:45;;;;;;;30.80;5.82;;;7.80;99.90;;;;;;5073142;28;20056;-69
2023/05/26 00:45:12;;;;;;;27.42;6.63;;;7.80;99.90;;;;;;5055027;28;20061;-68
2023/05/26 00:47:40;;;;;;;21.58;5.18;;;7.70;99.90;;;;;;5052322;28;20049;-68
2023/05/26 00:50:08;;;;;;;19.65;5.45;;;7.70;99.90;;;;;;5073126;28;20102;-68
2023/05/26 00:52:36;;;;;;;27.50;5.95;;;7.70;99.90;;;;;;5054917;28;20052;-67
2023/05/26 00:55:03;;;;;;;27.80;6.30;;;7.70;99.90;;;;;;5054203;28;20071;-68
2023/05/26 00:57:31;;;;;;;19.77;4.82;;;7.70;99.90;;;;;;5054780;28;20062;-68
2023/05/26 00:59:58;;;;;;;22.25;5.43;;;7.60;99.90;;;;;;5072855;28;20048;-68
2023/05/26 01:02:27;;;;;;;19.98;5.28;;;7.60;99.90;;;;;;5072058;28;20056;-68
2023/05/26 01:04:55;;;;;;;19.45;5.15;;;7.60;99.90;;;;;;5054930;28;20450;-68
2023/05/26 01:07:23;;;;;;;20.50;6.38;;;7.70;99.90;;;;;;5052652;28;20052;-70
2023/05/26 01:09:51;;;;;;;26.50;5.22;;;8.30;99.90;;;;;;5071941;28;20060;-70
2023/05/26 01:12:25;;;;;;;21.65;5.80;;;7.80;99.90;;;;;;5052725;28;20052;-69
2023/05/26 01:14:56;;;;;;;26.15;6.90;;;7.50;99.90;;;;;;5051900;28;20123;-69
2023/05/26 01:17:30;;;;;;;26.35;5.78;;;7.50;99.90;;;;;;5054721;28;20114;-69
2023/05/26 01:20:22;;;;;;;29.42;5.82;;;7.50;99.90;;;;;;5054693;28;20446;-70
2023/05/26 01:23:27;;;;;;;19.73;5.60;;;8.50;99.90;;;;;;5071825;28;20098;-70
2023/05/26 01:26:27;;;;;;;21.35;6.10;;;7.50;99.90;;;;;;5045017;28;20059;-69
2023/05/26 01:28:59;;;;;;;20.60;5.18;;;7.30;99.90;;;;;;5069976;28;20106;-69
2023/05/26 01:31:26;;;;;;;25.85;6.70;;;7.50;99.90;;;;;;5054415;28;20052;-69
2023/05/26 01:33:53;;;;;;;20.55;7.07;;;7.50;99.90;;;;;;5054118;28;20102;-69
2023/05/26 01:36:21;;;;;;;21.05;6.10;;;7.50;99.90;;;;;;5053788;28;20056;-69
2023/05/26 01:38:48;;;;;;;24.65;6.05;;;7.50;99.90;;;;;;5054319;28;20048;-68
2023/05/26 01:41:22;;;;;;;28.92;6.07;;;7.50;99.90;;;;;;5054214;28;20047;-68
2023/05/26 01:43:57;;;;;;;30.42;6.75;;;7.50;99.90;;;;;;5051985;28;20052;-68
2023/05/26 01:46:29;;;;;;;20.65;6.25;;;7.50;99.90;;;;;;5052557;28;20489;-68
2023/05/26 01:48:59;;;;;;;22.85;5.22;;;8.10;99.90;;;;;;5054103;28;20048;-68
2023/05/26 01:51:32;;;;;;;21.15;6.25;;;7.60;99.90;;;;;;5053562;28;20139;-69
2023/05/26 01:54:01;;;;;;;27.13;7.38;;;7.40;99.90;;;;;;5054235;28;20055;-68
2023/05/26 01:56:32;;;;;;;19.98;6.25;;;7.40;99.90;;;;;;5070209;28;20131;-68
2023/05/26 01:59:00;;;;;;;26.10;5.63;;;8.40;99.90;;;;;;5051620;28;20057;-68
2023/05/26 02:01:28;;;;;;;21.38;5.53;;;7.40;99.90;;;;;;5053999;28;20560;-68
2023/05/26 02:03:56;;;;;;;27.95;5.10;;;7.50;99.90;;;;;;5054099;28;20052;-68
2023/05/26 02:06:23;;;;;;;27.75;6.32;;;7.50;99.90;;;;;;5071620;28;20044;-68
2023/05/26 02:08:51;;;;;;;26.63;6.25;;;7.40;99.90;;;;;;5053829;28;20462;-68
2023/05/26 02:11:18;;;;;;;28.38;6.30;;;7.40;99.90;;;;;;5051094;28;20058;-68
2023/05/26 02:13:46;;;;;;;22.98;5.50;;;7.40;99.90;;;;;;5071749;28;20089;-68
2023/05/26 02:16:13;;;;;;;20.77;6.03;;;7.40;99.90;;;;;;5071959;28;20072;-68
2023/05/26 02:18:42;;;;;;;18.48;6.20;;;7.30;99.90;;;;;;5053419;28;20067;-69
2023/05/26 02:21:09;;;;;;;23.15;6.40;;;7.30;99.90;;;;;;5053843;28;20048;-69
2023/05/26 02:23:36;;;;;;;29.48;7.13;;;7.30;99.90;;;;;;5071750;28;20075;-68
2023/05/26 02:26:03;;;;;;;26.38;5.72;;;7.20;99.90;;;;;;5071272;28;20060;-68
2023/05/26 02:28:29;;;;;;;26.90;5.35;;;7.20;99.90;;;;;;5071917;28;20044;-68
2023/05/26 02:30:56;;;;;;;25.27;6.30;;;7.20;99.90;;;;;;5053860;28;20079;-68
2023/05/26 02:33:23;;;;;;;25.85;5.32;;;7.20;99.90;;;;;;5053330;28;20056;-68
2023/05/26 02:35:52;;;;;;;18.35;5.88;;;7.20;99.90;;;;;;5053815;28;20056;-68
2023/05/26 02:38:18;;;;;;;30.55;7.05;;;7.20;99.90;;;;;;5053602;28;20048;-69
2023/05/26 02:40:45;;;;;;;24.48;5.93;;;7.20;99.90;;;;;;5071086;28;20048;-69
2023/05/26 02:43:12;;;;;;;24.38;6.57;;;7.80;99.90;;;;;;5071592;28;20121;-68
2023/05/26 02:45:39;;;;;;;23.42;6.32;;;7.10;99.90;;;;;;5074266;28;20040;-68
2023/05/26 02:48:06;;;;;;;20.60;5.38;;;7.10;99.90;;;;;;5056917;28;20060;-68
2023/05/26 02:50:33;;;;;;;18.58;5.70;;;7.20;99.90;;;;;;5075331;28;20458;-68
2023/05/26 02:53:02;;;;;;;22.48;6.00;;;7.20;99.90;;;;;;5057090;28;20056;-68
2023/05/26 02:55:30;;;;;;;24.55;5.43;;;7.10;99.90;;;;;;5056840;28;20056;-67
2023/05/26 02:57:57;;;;;;;24.08;6.30;;;7.10;99.90;;;;;;5057425;28;20051;-67
2023/05/26 03:00:24;;;;;;;22.58;6.65;;;7.10;99.90;;;;;;5056643;28;20515;-68
2023/05/26 03:02:51;;;;;;;33.95;6.55;;;7.10;99.90;;;;;;5075140;28;20044;-68
2023/05/26 03:05:18;;;;;;;28.88;6.75;;;7.10;99.90;;;;;;5074880;28;20052;-68
2023/05/26 03:07:45;;;;;;;23.65;5.72;;;7.10;99.90;;;;;;5056416;28;20048;-69
2023/05/26 03:10:13;;;;;;;21.65;5.10;;;7.10;99.90;;;;;;5074814;28;20094;-68
2023/05/26 03:12:41;;;;;;;20.85;5.28;;;7.10;99.90;;;;;;5074899;28;20036;-70
2023/05/26 03:15:11;;;;;;;21.77;6.75;;;7.00;99.90;;;;;;5072015;28;20044;-69
2023/05/26 03:17:38;;;;;;;17.58;5.10;;;7.00;99.90;;;;;;5056481;28;20148;-69
2023/05/26 03:20:06;;;;;;;28.23;6.13;;;7.00;99.90;;;;;;5056505;28;20056;-69
2023/05/26 03:22:33;;;;;;;16.05;5.82;;;7.00;99.90;;;;;;5055767;28;20064;-69
2023/05/26 03:25:00;;;;;;;18.08;5.70;;;7.00;99.90;;;;;;5056477;28;20059;-70
2023/05/26 03:27:28;;;;;;;24.15;5.82;;;7.10;99.90;;;;;;5056442;28;20064;-69
2023/05/26 03:29:55;;;;;;;15.80;5.10;;;7.10;99.90;;;;;;5055579;28;20048;-69
2023/05/26 03:32:22;;;;;;;18.75;5.70;;;7.30;99.90;;;;;;5056319;28;20052;-69
2023/05/26 03:34:49;;;;;;;15.30;4.82;;;7.50;99.90;;;;;;5074511;28;20094;-69
2023/05/26 03:37:16;;;;;;;19.42;5.03;;;7.70;99.90;;;;;;5048490;28;20088;-69
2023/05/26 03:39:43;;;;;;;15.55;4.90;;;7.70;99.90;;;;;;5050151;28;20124;-70
2023/05/26 03:42:10;;;;;;;22.60;5.68;;;8.60;99.90;;;;;;5054103;28;20102;-69
2023/05/26 03:44:38;;;;;;;25.48;5.80;;;7.80;99.90;;;;;;5055187;28;20063;-69
2023/05/26 03:47:06;;;;;;;24.42;5.68;;;7.90;99.90;;;;;;5071738;28;20106;-69
2023/05/26 03:49:33;;;;;;;24.45;6.97;;;7.90;99.90;;;;;;5083648;28;20061;-70
2023/05/26 03:52:00;;;;;;;21.98;4.43;;;7.90;99.90;;;;;;5053284;28;20048;-71
2023/05/26 03:54:27;;;;;;;22.10;5.85;;;7.90;99.90;;;;;;5053013;28;20056;-70
2023/05/26 03:56:55;;;;;;;20.35;4.88;;;8.00;99.90;;;;;;5052519;28;20106;-69
2023/05/26 03:59:22;;;;;;;18.95;6.00;;;8.00;99.90;;;;;;5052582;28;20071;-69
2023/05/26 04:01:50;;;;;;;24.90;5.15;;;8.00;99.90;;;;;;5072339;28;20055;-70
2023/05/26 04:04:17;;;;;;;22.00;4.97;;;8.10;99.90;;;;;;5051990;28;20058;-70
2023/05/26 04:06:44;;;;;;;26.65;6.40;;;8.10;99.90;;;;;;5070262;28;20052;-69
2023/05/26 04:09:11;;;;;;;19.80;5.35;;;8.40;99.90;;;;;;5051524;28;20048;-69
2023/05/26 04:11:38;;;;;;;24.13;5.70;;;8.30;99.90;;;;;;5054168;28;20048;-69
2023/05/26 04:14:06;;;;;;;21.20;5.25;;;8.30;99.90;;;;;;5050609;28;20097;-71
2023/05/26 04:16:33;;;;;;;19.83;5.70;;;8.30;99.90;;;;;;5054264;28;20052;-69
2023/05/26 04:19:02;;;;;;;23.73;5.45;;;8.30;99.90;;;;;;5070726;28;20114;-70
2023/05/26 04:21:30;;;;;;;22.67;6.10;;;8.40;99.90;;;;;;5054821;28;20135;-70
2023/05/26 04:23:57;;;;;;;24.73;5.22;;;8.50;99.90;;;;;;5053230;28;20500;-70
2023/05/26 04:26:32;;;;;;;21.23;5.95;;;8.50;99.90;;;;;;5054257;28;20072;-69
2023/05/26 04:29:00;;;;;;;25.60;6.15;;;8.80;99.90;;;;;;5052603;28;20060;-67
2023/05/26 04:31:28;;;;;;;23.90;5.43;;;9.00;99.90;;;;;;5068793;28;20052;-70
2023/05/26 04:33:56;;;;;;;28.55;5.65;;;8.90;99.90;;;;;;5068095;28;20496;-70
2023/05/26 04:36:24;;;;;;;27.80;6.15;;;9.90;99.90;;;;;;5072216;28;20049;-69
2023/05/26 04:38:54;;;;;;;28.95;6.47;;;9.30;99.90;;;;;;5052491;28;20451;-69
2023/05/26 04:41:21;;;;;;;26.57;5.40;;;9.10;99.90;;;;;;5072570;28;20049;-69
2023/05/26 04:43:49;;;;;;;24.73;5.93;;;9.00;99.90;;;;;;5070879;28;20512;-70
2023/05/26 04:46:16;;;;;;;18.65;5.80;;;9.00;99.90;;;;;;5068731;28;20047;-69
2023/05/26 04:48:43;;;;;;;22.60;6.53;;;9.00;99.90;;;;;;5071930;28;20501;-70
2023/05/26 04:51:10;;;;;;;22.75;6.60;;;9.50;99.90;;;;;;5070546;28;20056;-70
2023/05/26 04:53:38;;;;;;;26.85;7.20;;;9.00;99.90;;;;;;5070856;28;20037;-69
2023/05/26 04:56:06;;;;;;;22.77;7.50;;;9.10;99.90;;;;;;5068533;28;20049;-70
2023/05/26 04:58:33;;;;;;;19.20;6.30;;;9.10;99.90;;;;;;5070193;28;20048;-69
2023/05/26 05:01:02;;;;;;;25.92;6.50;;;9.30;99.90;;;;;;5066750;28;20049;-69
2023/05/26 05:03:31;;;;;;;22.13;6.60;;;9.70;99.90;;;;;;5068221;28;20052;-69
2023/05/26 05:05:58;;;;;;;25.08;6.45;;;9.90;99.90;;;;;;5053021;28;20049;-69
2023/05/26 05:08:25;;;;;;;17.98;5.70;;;9.40;99.90;;;;;;5052276;28;20098;-69
2023/05/26 05:10:53;;;;;;;24.58;6.15;;;9.50;99.90;;;;;;5051760;28;20521;-68
2023/05/26 05:13:20;;;;;;;27.52;6.80;;;10.70;99.90;;;;;;5069612;28;20107;-71
2023/05/26 05:15:47;;;;;;;19.95;6.32;;;9.80;99.90;;;;;;5051153;28;20052;-71
2023/05/26 05:18:14;;;;;;;25.05;6.13;;;10.00;99.90;;;;;;5069831;28;20106;-71
2023/05/26 05:20:41;;;;;;;21.00;6.95;;;10.10;99.90;;;;;;5052378;28;20450;-71
2023/05/26 05:23:08;;;;;;;21.25;6.13;;;10.30;99.90;;;;;;5051768;28;20099;-71
2023/05/26 05:25:35;;;;;;;17.42;5.63;;;10.40;99.90;;;;;;5051543;28;20106;-71
2023/05/26 05:28:03;;;;;;;20.73;6.18;;;10.60;99.90;;;;;;5069020;28;20059;-72
2023/05/26 05:30:30;;;;;;;27.67;6.38;;;10.80;99.90;;;;;;5049936;28;20052;-71
2023/05/26 05:32:57;;;;;;;17.88;5.32;;;10.90;99.90;;;;;;5067941;28;20041;-71
2023/05/26 05:35:24;;;;;;;23.52;5.70;;;12.00;99.90;;;;;;5066373;28;20099;-71
2023/05/26 05:37:56;;;;;;;22.98;6.30;;;11.30;99.90;;;;;;5051626;28;20483;-71
2023/05/26 05:40:23;;;;;;;21.63;5.75;;;11.50;99.90;;;;;;5051327;28;20436;-71
2023/05/26 05:42:50;;;;;;;24.95;6.10;;;11.60;99.90;;;;;;5050649;28;20053;-71
2023/05/26 05:45:18;;;;;;;24.17;6.95;;;11.70;99.90;;;;;;5067163;28;20094;-71
2023/05/26 05:47:45;;;;;;;18.55;6.53;;;11.90;99.90;;;;;;5069235;28;20044;-71
2023/05/26 05:50:13;;;;;;;28.05;6.22;;;12.00;99.90;;;;;;5051686;28;20052;-71
2023/05/26 05:52:40;;;;;;;20.58;5.70;;;12.10;99.90;;;;;;5050656;28;20045;-71
2023/05/26 05:55:07;;;;;;;25.63;5.50;;;12.30;99.90;;;;;;5052083;28;20052;-70
2023/05/26 05:57:34;;;;;;;32.72;7.40;;;12.50;99.90;;;;;;5050403;28;20090;-70
2023/05/26 06:00:02;;;;;;;24.75;6.50;;;12.60;99.90;;;;;;5053243;28;20093;-70
2023/05/26 06:02:30;;;;;;;18.48;4.97;;;12.80;99.90;;;;;;5050246;28;20057;-70
2023/05/26 06:04:57;;;;;;;20.95;5.95;;;12.90;99.90;;;;;;5068966;28;20053;-69
2023/05/26 06:07:24;;;;;;;20.77;5.03;;;13.10;99.90;;;;;;5052299;28;20052;-70
2023/05/26 06:09:51;;;;;;;18.73;4.97;;;13.30;99.90;;;;;;5052948;28;20052;-69
2023/05/26 06:12:18;;;;;;;17.98;4.95;;;13.40;99.90;;;;;;5067160;28;20466;-70
2023/05/26 06:14:45;;;;;;;13.60;3.85;;;13.50;99.90;;;;;;5052149;28;20055;-70
2023/05/26 06:17:12;;;;;;;22.40;5.20;;;13.90;99.90;;;;;;5069233;28;20048;-70
2023/05/26 06:19:40;;;;;;;22.15;5.35;;;13.80;99.90;;;;;;5071898;28;20515;-71
2023/05/26 06:22:07;;;;;;;19.05;5.45;;;13.90;99.90;;;;;;5052686;28;20484;-69
2023/05/26 06:24:34;;;;;;;23.95;5.45;;;14.00;99.90;;;;;;5055019;28;20495;-69
2023/05/26 06:27:05;;;;;;;16.70;4.55;;;14.10;99.90;;;;;;5075042;28;20139;-69
2023/05/26 06:29:32;;;;;;;18.00;4.50;;;14.40;99.90;;;;;;5056186;28;20059;-70
2023/05/26 06:31:59;;;;;;;19.83;4.95;;;14.50;99.90;;;;;;5055497;28;20052;-70
2023/05/26 06:34:26;;;;;;;16.98;4.38;;;14.60;99.90;;;;;;5073284;28;20046;-70
2023/05/26 06:36:55;;;;;;;18.70;5.45;;;14.70;99.90;;;;;;5074415;28;20048;-70
2023/05/26 06:39:23;;;;;;;15.90;5.05;;;14.80;99.90;;;;;;5055390;28;20047;-70
2023/05/26 06:41:50;;;;;;;15.57;4.47;;;15.30;99.90;;;;;;5056957;28;20133;-70
2023/05/26 06:44:17;;;;;;;16.67;4.95;;;15.00;99.90;;;;;;5055707;28;20488;-69
2023/05/26 06:46:44;;;;;;;12.77;4.43;;;15.30;99.90;;;;;;5074353;28;20112;-71
2023/05/26 06:49:11;;;;;;;16.85;4.60;;;15.40;99.90;;;;;;5073454;28;20044;-71
2023/05/26 06:51:38;;;;;;;13.73;3.90;;;15.70;99.90;;;;;;5074881;28;20056;-71
2023/05/26 06:54:06;;;;;;;19.52;4.70;;;15.90;99.90;;;;;;5055098;28;20052;-71
2023/05/26 06:56:33;;;;;;;14.70;4.15;;;16.20;99.90;;;;;;5056609;28;20056;-69
2023/05/26 06:59:00;;;;;;;13.77;3.35;;;16.50;99.90;;;;;;5056247;28;20094;-69
2023/05/26 07:01:27;;;;;;;21.80;4.05;;;16.60;97.80;;;;;;5055240;28;20110;-69
2023/05/26 07:03:54;;;;;;;11.05;3.67;;;16.80;98.40;;;;;;5056170;28;20067;-70
2023/05/26 07:06:21;;;;;;;17.95;4.30;;;17.10;97.80;;;;;;5054772;28;20511;-70
2023/05/26 07:08:48;;;;;;;14.20;4.50;;;17.20;96.50;;;;;;5055662;28;20079;-69
2023/05/26 07:11:16;;;;;;;11.55;4.57;;;17.40;96.80;;;;;;5054693;28;20048;-70
2023/05/26 07:13:43;;;;;;;10.52;3.80;;;17.70;95.10;;;;;;5056047;28;20044;-70
2023/05/26 07:16:10;;;;;;;16.20;4.05;;;17.90;95.60;;;;;;5055949;28;20059;-70
2023/05/26 07:18:37;;;;;;;17.98;4.53;;;18.00;94.20;;;;;;5056316;28;20041;-70
2023/05/26 07:21:04;;;;;;;11.70;3.60;;;18.20;93.80;;;;;;5072242;28;20048;-71
2023/05/26 07:23:34;;;;;;;10.93;3.45;;;18.30;93.00;;;;;;5073971;28;20041;-71
2023/05/26 07:26:01;;;;;;;10.02;3.58;;;18.60;92.90;;;;;;5055928;28;20072;-70
2023/05/26 07:28:29;;;;;;;12.60;4.00;;;18.70;93.20;;;;;;5055546;28;20117;-71
2023/05/26 07:30:56;;;;;;;11.27;3.92;;;18.80;92.10;;;;;;5071690;28;20102;-70
2023/05/26 07:33:23;;;;;;;17.20;4.20;;;19.00;92.00;;;;;;5055806;28;20394;-71
2023/05/26 07:35:50;;;;;;;17.17;4.28;;;19.10;92.00;;;;;;5054730;28;20056;-71
2023/05/26 07:38:17;;;;;;;14.70;3.17;;;19.60;91.90;;;;;;5055702;28;20130;-70
2023/05/26 07:40:44;;;;;;;13.10;3.88;;;19.60;90.80;;;;;;5073172;28;20040;-70
2023/05/26 07:43:12;;;;;;;9.70;4.13;;;19.80;90.80;;;;;;5055476;28;20181;-70
2023/05/26 07:45:41;;;;;;;8.82;2.85;;;19.90;90.60;;;;;;5053473;28;20079;-71
2023/05/26 07:48:08;;;;;;;11.43;3.50;;;20.10;88.10;;;;;;5055349;28;20053;-71
2023/05/26 07:50:35;;;;;;;12.98;3.55;;;20.30;88.90;;;;;;5073127;28;20496;-71
2023/05/26 07:53:02;;;;;;;15.35;4.25;;;20.50;86.90;;;;;;5055159;28;20044;-71
2023/05/26 07:55:29;;;;;;;12.02;3.65;;;20.50;85.10;;;;;;5055822;28;20080;-71
2023/05/26 07:57:56;;;;;;;14.40;3.92;;;20.80;87.70;;;;;;5055638;28;20125;-72
2023/05/26 08:00:23;;;;;;;11.73;3.10;;;20.60;87.00;;;;;;5055985;28;20068;-71
2023/05/26 08:02:51;;;;;;;9.43;3.65;;;20.60;86.10;;;;;;5055489;28;20049;-71
2023/05/26 08:05:18;;;;;;;14.00;4.03;;;20.70;83.50;;;;;;5055672;28;20048;-72
2023/05/26 08:07:45;;;;;;;9.95;3.58;;;20.80;84.90;;;;;;5072967;28;20484;-71
2023/05/26 08:10:12;;;;;;;9.68;2.90;;;21.00;85.50;;;;;;5073151;28;20056;-70
2023/05/26 08:12:39;;;;;;;9.23;3.40;;;21.10;83.90;;;;;;5073629;28;20047;-72
2023/05/26 08:15:14;;;;;;;8.73;3.60;;;21.40;84.10;;;;;;5053401;28;20052;-72
2023/05/26 08:17:41;;;;;;;9.90;3.78;;;21.40;81.70;;;;;;5053253;28;20060;-72
2023/05/26 08:20:11;;;;;;;6.53;2.80;;;21.30;82.60;;;;;;5073128;28;20056;-72
2023/05/26 08:22:38;;;;;;;11.70;3.35;;;21.30;81.70;;;;;;5055131;28;20048;-72
2023/05/26 08:25:06;;;;;;;10.05;3.10;;;21.30;82.10;;;;;;5072692;28;20451;-72
2023/05/26 08:27:33;;;;;;;9.85;3.17;;;21.30;80.90;;;;;;5055473;28;20053;-71
2023/05/26 08:30:00;;;;;;;12.88;3.33;;;21.40;82.40;;;;;;5072909;28;20063;-71
2023/05/26 08:32:26;;;;;;;7.53;2.90;;;21.30;80.90;;;;;;5054396;28;20053;-71
2023/05/26 08:34:53;;;;;;;12.70;3.58;;;21.20;80.60;;;;;;5053300;28;20117;-72
2023/05/26 08:37:22;;;;;;;9.73;3.60;;;21.60;80.50;;;;;;5054504;28;20127;-71
2023/05/26 08:39:49;;;;;;;12.52;3.67;;;21.60;79.20;;;;;;5072332;28;20056;-71
2023/05/26 08:42:19;;;;;;;6.97;2.70;;;21.80;79.80;;;;;;5071929;28;20044;-71
2023/05/26 08:44:46;;;;;;;9.65;3.00;;;22.10;78.80;;;;;;5054993;28;20124;-72
2023/05/26 08:47:14;;;;;;;10.43;3.33;;;22.20;78.80;;;;;;5054401;28;20044;-72
2023/05/26 08:49:46;;;;;;;11.23;2.92;;;22.30;78.00;;;;;;5072879;28;20101;-72
2023/05/26 08:52:16;;;;;;;11.18;3.05;;;22.50;77.90;;;;;;5071543;28;20052;-72
2023/05/26 08:54:45;;;;;;;10.77;3.03;;;22.60;77.40;;;;;;5072605;28;20045;-72
2023/05/26 08:57:13;;;;;;;11.10;3.60;;;22.50;77.30;;;;;;5072280;28;20583;-71
2023/05/26 08:59:41;;;;;;;13.55;3.88;;;22.40;76.50;;;;;;5053398;28;20052;-72
2023/05/26 09:02:09;;;;;;;10.65;3.83;;;22.10;77.20;;;;;;5072205;28;20056;-72
2023/05/26 09:04:36;;;;;;;11.85;2.72;;;22.20;78.10;;;;;;5045244;28;20052;-72
2023/05/26 09:07:06;;;;;;;11.23;3.47;;;22.40;78.10;;;;;;5051846;28;20059;-72
2023/05/26 09:09:33;;;;;;;15.80;4.03;;;22.30;78.20;;;;;;5069075;28;20053;-72
2023/05/26 09:12:01;;;;;;;9.98;3.20;;;22.50;78.70;;;;;;5052244;28;20040;-71
2023/05/26 09:14:28;;;;;;;11.32;3.00;;;22.50;78.10;;;;;;5053127;28;20090;-71
2023/05/26 09:16:59;;;;;;;12.30;3.63;;;22.50;77.70;;;;;;5069364;28;20090;-72
2023/05/26 09:19:27;;;;;;;11.15;3.00;;;22.50;76.50;;;;;;5053638;28;20064;-73
2023/05/26 09:21:55;;;;;;;10.13;3.22;;;22.70;77.10;;;;;;5069712;28;20175;-71
2023/05/26 09:24:25;;;;;;;10.60;3.35;;;23.00;77.20;;;;;;5053393;28;20059;-71
2023/05/26 09:26:52;;;;;;;11.00;3.13;;;23.10;76.30;;;;;;5053182;28;20399;-71
2023/05/26 09:29:20;;;;;;;12.88;3.75;;;23.40;76.60;;;;;;5052990;28;20118;-71
2023/05/26 09:31:48;;;;;;;11.40;3.55;;;23.50;76.20;;;;;;5070781;28;20059;-71
2023/05/26 09:34:21;;;;;;;9.80;3.10;;;23.50;76.10;;;;;;5071360;28;20454;-70
2023/05/26 09:36:49;;;;;;;8.57;3.10;;;23.50;75.30;;;;;;5071031;28;20448;-71
2023/05/26 09:39:17;;;;;;;7.88;3.38;;;23.30;75.00;;;;;;5070528;28;20066;-71
2023/05/26 09:41:45;;;;;;;9.43;2.72;;;23.50;75.50;;;;;;5050848;28;20064;-71
2023/05/26 09:44:14;;;;;;;10.05;3.20;;;23.50;74.90;;;;;;5051791;28;20083;-73
2023/05/26 09:46:44;;;;;;;9.15;3.72;;;23.70;75.20;;;;;;5071437;28;20051;-73
2023/05/26 09:49:13;;;;;;;11.35;3.25;;;23.70;74.60;;;;;;5067224;28;20048;-72
2023/05/26 09:51:40;;;;;;;9.68;3.08;;;23.60;75.20;;;;;;5053298;28;20709;-72
2023/05/26 09:54:08;;;;;;;10.20;3.20;;;22.90;75.00;;;;;;5050245;28;20045;-71
2023/05/26 09:56:38;;;;;;;13.07;3.20;;;22.90;75.30;;;;;;5070823;28;20087;-71
2023/05/26 09:59:06;;;;;;;9.40;2.95;;;23.00;74.90;;;;;;5070503;28;20105;-71
2023/05/26 10:01:35;;;;;;;10.52;3.42;;;23.50;75.70;;;;;;5053284;28;20060;-72
2023/05/26 10:04:06;;;;;;;9.07;3.00;;;23.70;73.70;;;;;;5050314;28;20560;-72
2023/05/26 10:06:35;;;;;;;10.00;3.35;;;24.10;75.20;;;;;;5051678;28;20084;-71
2023/05/26 10:09:04;;;;;;;12.73;3.72;;;23.70;74.10;;;;;;5069126;28;20053;-71
2023/05/26 10:11:34;;;;;;;10.70;3.25;;;23.70;73.60;;;;;;5071175;28;20059;-70
2023/05/26 10:14:03;;;;;;;11.07;3.88;;;23.50;74.50;;;;;;5049412;28;20074;-71
2023/05/26 10:16:30;;;;;;;11.98;3.50;;;22.80;75.00;;;;;;5068646;28;20063;-71
2023/05/26 10:18:57;;;;;;;9.93;3.10;;;23.10;75.40;;;;;;5070813;28;20051;-72
2023/05/26 10:21:32;;;;;;;9.45;3.17;;;23.80;75.80;;;;;;5052302;28;20418;-70
2023/05/26 10:24:07;;;;;;;12.40;3.45;;;24.00;73.60;;;;;;5052317;28;20040;-72
2023/05/26 10:26:44;;;;;;;8.65;2.97;;;23.90;73.50;;;;;;5051007;28;20060;-72
2023/05/26 10:29:13;;;;;;;7.82;2.83;;;23.70;73.10;;;;;;5068341;28;20948;-71
2023/05/26 10:31:40;;;;;;;9.00;2.97;;;23.60;73.80;;;;;;5049883;28;20526;-72
2023/05/26 10:34:13;;;;;;;11.02;3.38;;;23.90;73.00;;;;;;5052059;28;20048;-71
2023/05/26 10:36:42;;;;;;;9.80;3.25;;;23.80;72.50;;;;;;5050622;28;20048;-72
2023/05/26 10:39:12;;;;;;;9.73;3.22;;;23.70;74.00;;;;;;5069379;28;20128;-71
2023/05/26 10:41:48;;;;;;;10.88;3.58;;;23.80;73.60;;;;;;5051259;28;20507;-71
2023/05/26 10:44:41;;;;;;;9.85;3.20;;;23.90;74.60;;;;;;5070646;28;20074;-71
2023/05/26 10:47:14;;;;;;;7.65;3.38;;;23.80;71.10;;;;;;5069970;28;20053;-71
2023/05/26 10:49:42;;;;;;;14.15;3.33;;;23.80;72.20;;;;;;5067635;28;20080;-72
2023/05/26 10:52:13;;;;;;;11.07;3.22;;;24.00;73.90;;;;;;5051400;28;20048;-72
2023/05/26 10:54:42;;;;;;;9.05;3.10;;;24.10;73.20;;;;;;5069282;28;20048;-72
2023/05/26 10:57:29;;;;;;;10.05;3.85;;;24.70;73.60;;;;;;5051219;28;20059;-74
2023/05/26 10:59:56;;;;;;;10.48;3.28;;;24.50;72.60;;;;;;5066951;28;20071;-71
2023/05/26 11:02:23;;;;;;;10.95;3.90;;;24.70;72.40;;;;;;5051602;28;20439;-72
2023/05/26 11:04:51;;;;;;;13.73;4.22;;;25.10;72.60;;;;;;5051309;28;20049;-71
2023/05/26 11:07:23;;;;;;;8.63;3.33;;;24.80;72.60;;;;;;5055711;28;20052;-73
2023/05/26 11:10:02;;;;;;;13.77;3.90;;;24.80;72.40;;;;;;5053358;28;20053;-73
2023/05/26 11:12:34;;;;;;;12.33;3.53;;;24.20;73.70;;;;;;5055082;28;20114;-72
2023/05/26 11:15:25;;;;;;;12.23;3.63;;;23.60;73.70;;;;;;5053978;28;20052;-73
2023/05/26 11:17:58;;;;;;;11.32;3.53;;;23.10;74.30;;;;;;5054231;28;20052;-71
2023/05/26 11:20:25;;;;;;;10.93;3.75;;;22.70;74.90;;;;;;5055408;28;20063;-71
2023/05/26 11:22:54;;;;;;;12.45;4.05;;;23.00;75.80;;;;;;5054483;28;20048;-71
2023/05/26 11:25:21;;;;;;;10.70;3.63;;;23.30;74.30;;;;;;5055302;28;20051;-69
2023/05/26 11:27:49;;;;;;;11.90;3.42;;;23.70;73.60;;;;;;5055059;28;20053;-71
2023/05/26 11:30:16;;;;;;;15.50;4.10;;;24.50;75.10;;;;;;5055094;28;20052;-72
2023/05/26 11:32:46;;;;;;;14.05;4.50;;;24.90;72.80;;;;;;5054353;28;20067;-72
2023/05/26 11:35:23;;;;;;;12.45;3.63;;;24.90;72.40;;;;;;5052210;28;20055;-72
2023/05/26 11:37:50;;;;;;;14.48;3.67;;;25.00;72.40;;;;;;5056133;28;20046;-72
2023/05/26 11:40:18;;;;;;;11.75;3.70;;;24.80;71.50;;;;;;5074211;28;20071;-72
2023/05/26 11:42:45;;;;;;;9.05;3.63;;;24.30;71.30;;;;;;5055845;28;20064;-72
2023/05/26 11:45:12;;;;;;;13.27;3.40;;;23.90;72.50;;;;;;5055907;28;20094;-72
2023/05/26 11:47:39;;;;;;;9.65;3.67;;;24.30;72.40;;;;;;5074090;28;20124;-73
2023/05/26 11:50:10;;;;;;;11.05;3.78;;;24.40;71.80;;;;;;5055314;28;20128;-72
2023/05/26 11:52:41;;;;;;;10.63;3.60;;;24.60;72.00;;;;;;5056214;28;20067;-72
2023/05/26 11:55:11;;;;;;;13.60;4.15;;;24.60;72.70;;;;;;5073208;28;20070;-72
2023/05/26 11:57:40;;;;;;;11.07;2.95;;;24.50;73.30;;;;;;5074035;28;20044;-71
2023/05/26 12:00:13;;;;;;;15.13;3.88;;;24.20;72.80;;;;;;5048176;28;20125;-72
2023/05/26 12:02:41;;;;;;;10.93;3.53;;;24.20;73.10;;;;;;5069781;28;20049;-72
2023/05/26 12:05:23;;;;;;;7.65;3.45;;;24.40;71.20;;;;;;5068993;28;20073;-72
2023/05/26 12:08:06;;;;;;;10.43;3.42;;;24.90;71.20;;;;;;5073187;28;20044;-72
2023/05/26 12:10:33;;;;;;;9.40;2.97;;;25.10;70.40;;;;;;5051358;28;20473;-70
2023/05/26 12:13:02;;;;;;;12.30;4.10;;;25.00;71.10;;;;;;5053954;28;20174;-71
2023/05/26 12:15:30;;;;;;;8.52;3.30;;;25.20;70.60;;;;;;5052931;28;20052;-71
2023/05/26 12:18:00;;;;;;;8.68;3.88;;;25.30;70.90;;;;;;5068745;28;20060;-72
2023/05/26 12:20:27;;;;;;;11.27;4.13;;;25.70;70.70;;;;;;5052551;28;20049;-72
2023/05/26 12:23:01;;;;;;;11.65;4.03;;;25.50;70.60;;;;;;5067936;28;20048;-71
2023/05/26 12:25:36;;;;;;;11.38;3.58;;;24.80;71.10;;;;;;5071273;28;20453;-71
2023/05/26 12:28:05;;;;;;;9.18;3.58;;;24.20;71.70;;;;;;5053576;28;20138;-71
2023/05/26 12:30:33;;;;;;;14.00;3.80;;;24.00;72.70;;;;;;5053235;28;20884;-71
2023/05/26 12:33:00;;;;;;;9.90;3.35;;;24.60;73.10;;;;;;5069731;28;20059;-72
2023/05/26 12:35:27;;;;;;;9.93;3.50;;;24.50;72.00;;;;;;5054446;28;20040;-71
2023/05/26 12:37:55;;;;;;;11.68;3.58;;;24.60;71.60;;;;;;5050521;28;20053;-72
2023/05/26 12:40:22;;;;;;;12.07;3.85;;;24.50;71.70;;;;;;5052714;28;20070;-71
2023/05/26 12:42:49;;;;;;;11.40;3.38;;;24.60;72.30;;;;;;5051281;28;20052;-71
2023/05/26 12:45:18;;;;;;;10.95;3.08;;;24.40;72.20;;;;;;5052640;28;20055;-71
2023/05/26 12:47:48;;;;;;;11.18;4.10;;;24.60;72.00;;;;;;5068307;28;20055;-71
2023/05/26 12:50:15;;;;;;;12.93;3.72;;;24.30;72.20;;;;;;5071299;28;20057;-71